logo
Search for airport 
image banner adimage banner adimage banner ad
image banner ad

OEPC - Pump Station 3

Located in , Saudi Arabia

ICAO - OEPC, IATA -

Data provided by Airmate  

General information

Coordinates: N25°10'30" E47°29'18"
Elevation is 1741 feet MSL.
 
View others Airports in Ash Sharqiyah

Operational data

Special qualification required
Current time UTC:
Current local time:
Weather at : - ( 0 km )
METAR: CYYT 202331Z 23014KT 15SM FEW040 BKN240 M00/M02 A3012 RMK SC1CI6 SC TR WIND EST SLP210
View NOTAMs / SUP AIP / TFR affecting this airport [VIEW]
Communications frequencies: [VIEW]

Runways:

RWY identifierQFULength (ft)Width (ft)SurfaceLDA (ft)
14142°7965115ASP
32322°7965115ASP

Airport contact information

Address: Saudi Arabia

Satellite view of OEPC